sensor_id;sensor_type;location;lat;lon;timestamp;P1;durP1;ratioP1;P2;durP2;ratioP2
60847;SDS011;46681;47.696;9.140;2022-11-06T00:01:18;3.60;;;3.30;;
60847;SDS011;46681;47.696;9.140;2022-11-06T00:03:52;4.60;;;3.70;;
60847;SDS011;46681;47.696;9.140;2022-11-06T00:06:18;3.40;;;3.20;;
60847;SDS011;46681;47.696;9.140;2022-11-06T00:08:45;3.90;;;3.60;;
60847;SDS011;46681;47.696;9.140;2022-11-06T00:11:11;3.50;;;3.20;;
60847;SDS011;46681;47.696;9.140;2022-11-06T00:13:43;5.30;;;3.50;;
60847;SDS011;46681;47.696;9.140;2022-11-06T00:16:10;3.90;;;3.60;;
60847;SDS011;46681;47.696;9.140;2022-11-06T00:18:38;4.07;;;3.77;;
60847;SDS011;46681;47.696;9.140;2022-11-06T00:21:10;4.30;;;3.80;;
60847;SDS011;46681;47.696;9.140;2022-11-06T00:23:48;3.80;;;3.50;;
60847;SDS011;46681;47.696;9.140;2022-11-06T00:26:15;3.93;;;3.63;;
60847;SDS011;46681;47.696;9.140;2022-11-06T00:28:43;4.27;;;3.97;;
60847;SDS011;46681;47.696;9.140;2022-11-06T00:31:11;3.87;;;3.57;;
60847;SDS011;46681;47.696;9.140;2022-11-06T00:33:41;4.10;;;3.70;;
60847;SDS011;46681;47.696;9.140;2022-11-06T00:36:12;4.30;;;4.00;;
60847;SDS011;46681;47.696;9.140;2022-11-06T00:38:43;3.87;;;3.57;;
60847;SDS011;46681;47.696;9.140;2022-11-06T00:41:11;4.17;;;3.77;;
60847;SDS011;46681;47.696;9.140;2022-11-06T00:43:48;4.40;;;4.03;;
60847;SDS011;46681;47.696;9.140;2022-11-06T00:46:26;4.23;;;3.93;;
60847;SDS011;46681;47.696;9.140;2022-11-06T00:48:52;3.87;;;3.57;;
60847;SDS011;46681;47.696;9.140;2022-11-06T00:51:21;4.17;;;3.77;;
60847;SDS011;46681;47.696;9.140;2022-11-06T00:53:54;3.87;;;3.57;;
60847;SDS011;46681;47.696;9.140;2022-11-06T00:56:21;4.00;;;3.70;;
60847;SDS011;46681;47.696;9.140;2022-11-06T00:58:48;3.37;;;3.17;;
60847;SDS011;46681;47.696;9.140;2022-11-06T01:01:21;3.87;;;3.57;;
60847;SDS011;46681;47.696;9.140;2022-11-06T01:03:52;4.27;;;3.97;;
60847;SDS011;46681;47.696;9.140;2022-11-06T01:06:20;3.97;;;3.60;;
60847;SDS011;46681;47.696;9.140;2022-11-06T01:08:48;4.33;;;4.03;;
60847;SDS011;46681;47.696;9.140;2022-11-06T01:11:20;3.63;;;3.43;;
60847;SDS011;46681;47.696;9.140;2022-11-06T01:13:53;3.97;;;3.67;;
60847;SDS011;46681;47.696;9.140;2022-11-06T01:16:20;4.20;;;3.90;;
60847;SDS011;46681;47.696;9.140;2022-11-06T01:18:46;4.23;;;3.93;;
60847;SDS011;46681;47.696;9.140;2022-11-06T01:21:14;4.30;;;3.90;;
60847;SDS011;46681;47.696;9.140;2022-11-06T01:23:46;4.90;;;4.50;;
60847;SDS011;46681;47.696;9.140;2022-11-06T01:26:26;5.03;;;4.63;;
60847;SDS011;46681;47.696;9.140;2022-11-06T01:28:52;4.43;;;4.03;;
60847;SDS011;46681;47.696;9.140;2022-11-06T01:31:19;4.77;;;4.37;;
60847;SDS011;46681;47.696;9.140;2022-11-06T01:33:48;4.27;;;3.90;;
60847;SDS011;46681;47.696;9.140;2022-11-06T01:36:17;3.93;;;3.63;;
60847;SDS011;46681;47.696;9.140;2022-11-06T01:38:46;4.63;;;4.23;;
60847;SDS011;46681;47.696;9.140;2022-11-06T01:41:16;3.93;;;3.53;;
60847;SDS011;46681;47.696;9.140;2022-11-06T01:43:46;4.50;;;4.20;;
60847;SDS011;46681;47.696;9.140;2022-11-06T01:46:34;4.40;;;4.00;;
60847;SDS011;46681;47.696;9.140;2022-11-06T01:49:12;4.53;;;4.13;;
60847;SDS011;46681;47.696;9.140;2022-11-06T01:52:00;4.83;;;4.43;;
60847;SDS011;46681;47.696;9.140;2022-11-06T01:54:35;5.00;;;4.60;;
60847;SDS011;46681;47.696;9.140;2022-11-06T01:57:21;4.60;;;4.30;;
60847;SDS011;46681;47.696;9.140;2022-11-06T01:59:47;4.20;;;3.90;;
60847;SDS011;46681;47.696;9.140;2022-11-06T02:02:16;4.27;;;3.97;;
60847;SDS011;46681;47.696;9.140;2022-11-06T02:04:44;4.03;;;3.73;;
60847;SDS011;46681;47.696;9.140;2022-11-06T02:07:16;4.63;;;4.20;;
60847;SDS011;46681;47.696;9.140;2022-11-06T02:09:42;4.17;;;3.87;;
60847;SDS011;46681;47.696;9.140;2022-11-06T02:21:35;4.10;;;3.80;;
60847;SDS011;46681;47.696;9.140;2022-11-06T02:27:21;4.97;;;4.57;;
60847;SDS011;46681;47.696;9.140;2022-11-06T02:30:06;4.00;;;3.70;;
60847;SDS011;46681;47.696;9.140;2022-11-06T02:32:44;4.43;;;4.10;;
60847;SDS011;46681;47.696;9.140;2022-11-06T02:35:44;4.30;;;4.00;;
60847;SDS011;46681;47.696;9.140;2022-11-06T02:38:16;4.23;;;3.93;;
60847;SDS011;46681;47.696;9.140;2022-11-06T02:41:11;4.13;;;3.83;;
60847;SDS011;46681;47.696;9.140;2022-11-06T02:43:44;5.37;;;4.07;;
60847;SDS011;46681;47.696;9.140;2022-11-06T02:46:20;4.40;;;4.00;;
60847;SDS011;46681;47.696;9.140;2022-11-06T02:49:06;4.80;;;4.40;;
60847;SDS011;46681;47.696;9.140;2022-11-06T02:51:36;4.37;;;4.00;;
60847;SDS011;46681;47.696;9.140;2022-11-06T02:54:05;4.60;;;4.20;;
60847;SDS011;46681;47.696;9.140;2022-11-06T02:56:36;4.60;;;4.20;;
60847;SDS011;46681;47.696;9.140;2022-11-06T02:59:16;4.50;;;4.10;;
60847;SDS011;46681;47.696;9.140;2022-11-06T03:01:54;4.73;;;4.33;;
60847;SDS011;46681;47.696;9.140;2022-11-06T03:04:42;4.30;;;4.00;;
60847;SDS011;46681;47.696;9.140;2022-11-06T03:10:18;4.20;;;3.90;;
60847;SDS011;46681;47.696;9.140;2022-11-06T03:13:10;4.23;;;3.83;;
60847;SDS011;46681;47.696;9.140;2022-11-06T03:16:01;4.40;;;4.10;;
60847;SDS011;46681;47.696;9.140;2022-11-06T03:18:41;4.43;;;4.13;;
60847;SDS011;46681;47.696;9.140;2022-11-06T03:21:33;4.23;;;3.83;;
60847;SDS011;46681;47.696;9.140;2022-11-06T03:24:08;4.10;;;3.80;;
60847;SDS011;46681;47.696;9.140;2022-11-06T03:26:39;4.83;;;4.43;;
60847;SDS011;46681;47.696;9.140;2022-11-06T03:29:12;4.13;;;3.83;;
60847;SDS011;46681;47.696;9.140;2022-11-06T03:31:48;4.30;;;3.90;;
60847;SDS011;46681;47.696;9.140;2022-11-06T03:34:27;4.50;;;4.10;;
60847;SDS011;46681;47.696;9.140;2022-11-06T03:37:09;4.80;;;4.37;;
60847;SDS011;46681;47.696;9.140;2022-11-06T03:39:41;4.60;;;4.20;;
60847;SDS011;46681;47.696;9.140;2022-11-06T03:42:14;4.90;;;4.50;;
60847;SDS011;46681;47.696;9.140;2022-11-06T03:44:47;4.73;;;4.33;;
60847;SDS011;46681;47.696;9.140;2022-11-06T03:49:50;4.87;;;4.50;;
60847;SDS011;46681;47.696;9.140;2022-11-06T03:52:32;4.23;;;3.93;;
60847;SDS011;46681;47.696;9.140;2022-11-06T03:55:25;6.10;;;4.27;;
60847;SDS011;46681;47.696;9.140;2022-11-06T03:57:57;4.70;;;4.30;;
60847;SDS011;46681;47.696;9.140;2022-11-06T04:00:30;5.00;;;4.60;;
60847;SDS011;46681;47.696;9.140;2022-11-06T04:03:01;5.00;;;4.50;;
60847;SDS011;46681;47.696;9.140;2022-11-06T04:05:33;4.67;;;4.27;;
60847;SDS011;46681;47.696;9.140;2022-11-06T04:08:05;4.80;;;4.40;;
60847;SDS011;46681;47.696;9.140;2022-11-06T04:10:34;5.13;;;4.63;;
60847;SDS011;46681;47.696;9.140;2022-11-06T04:13:05;5.17;;;4.77;;
60847;SDS011;46681;47.696;9.140;2022-11-06T04:15:33;4.60;;;4.23;;
60847;SDS011;46681;47.696;9.140;2022-11-06T04:18:18;4.63;;;4.23;;
60847;SDS011;46681;47.696;9.140;2022-11-06T04:21:27;4.30;;;3.97;;
60847;SDS011;46681;47.696;9.140;2022-11-06T04:38:24;4.57;;;4.17;;
60847;SDS011;46681;47.696;9.140;2022-11-06T04:46:08;4.90;;;4.50;;
60847;SDS011;46681;47.696;9.140;2022-11-06T04:48:38;5.00;;;4.47;;
60847;SDS011;46681;47.696;9.140;2022-11-06T04:51:07;4.33;;;3.93;;
60847;SDS011;46681;47.696;9.140;2022-11-06T04:53:36;4.30;;;4.00;;
60847;SDS011;46681;47.696;9.140;2022-11-06T04:56:08;5.50;;;4.17;;
60847;SDS011;46681;47.696;9.140;2022-11-06T04:58:39;4.13;;;3.80;;
60847;SDS011;46681;47.696;9.140;2022-11-06T05:01:04;4.73;;;4.37;;
60847;SDS011;46681;47.696;9.140;2022-11-06T05:03:31;4.67;;;4.27;;
60847;SDS011;46681;47.696;9.140;2022-11-06T05:05:56;4.43;;;4.03;;
60847;SDS011;46681;47.696;9.140;2022-11-06T05:08:22;4.50;;;4.10;;
60847;SDS011;46681;47.696;9.140;2022-11-06T05:10:47;4.60;;;4.27;;
60847;SDS011;46681;47.696;9.140;2022-11-06T05:13:14;4.03;;;3.70;;
60847;SDS011;46681;47.696;9.140;2022-11-06T05:15:41;4.20;;;3.90;;
60847;SDS011;46681;47.696;9.140;2022-11-06T05:18:08;4.27;;;3.97;;
60847;SDS011;46681;47.696;9.140;2022-11-06T05:20:36;4.10;;;3.80;;
60847;SDS011;46681;47.696;9.140;2022-11-06T05:23:03;4.03;;;3.73;;
60847;SDS011;46681;47.696;9.140;2022-11-06T05:25:30;3.80;;;3.50;;
60847;SDS011;46681;47.696;9.140;2022-11-06T05:28:04;3.90;;;3.60;;
60847;SDS011;46681;47.696;9.140;2022-11-06T05:30:34;3.70;;;3.33;;
60847;SDS011;46681;47.696;9.140;2022-11-06T05:33:01;3.83;;;3.53;;
60847;SDS011;46681;47.696;9.140;2022-11-06T05:35:28;3.20;;;3.00;;
60847;SDS011;46681;47.696;9.140;2022-11-06T05:38:01;3.50;;;3.30;;
60847;SDS011;46681;47.696;9.140;2022-11-06T05:40:28;3.47;;;3.17;;
60847;SDS011;46681;47.696;9.140;2022-11-06T05:42:55;3.47;;;3.17;;
60847;SDS011;46681;47.696;9.140;2022-11-06T05:45:22;3.60;;;3.30;;
60847;SDS011;46681;47.696;9.140;2022-11-06T05:47:47;3.30;;;3.00;;
60847;SDS011;46681;47.696;9.140;2022-11-06T05:50:16;3.67;;;2.90;;
60847;SDS011;46681;47.696;9.140;2022-11-06T05:52:41;3.37;;;3.13;;
60847;SDS011;46681;47.696;9.140;2022-11-06T05:55:07;3.00;;;2.80;;
60847;SDS011;46681;47.696;9.140;2022-11-06T05:57:34;3.73;;;2.90;;
60847;SDS011;46681;47.696;9.140;2022-11-06T05:59:59;2.93;;;2.80;;
60847;SDS011;46681;47.696;9.140;2022-11-06T06:02:26;3.73;;;3.40;;
60847;SDS011;46681;47.696;9.140;2022-11-06T06:04:52;3.00;;;2.80;;
60847;SDS011;46681;47.696;9.140;2022-11-06T06:07:18;2.90;;;2.70;;
60847;SDS011;46681;47.696;9.140;2022-11-06T06:09:45;2.90;;;2.70;;
60847;SDS011;46681;47.696;9.140;2022-11-06T06:12:12;3.43;;;3.10;;
60847;SDS011;46681;47.696;9.140;2022-11-06T06:14:39;2.97;;;2.77;;
60847;SDS011;46681;47.696;9.140;2022-11-06T06:17:07;2.50;;;2.30;;
60847;SDS011;46681;47.696;9.140;2022-11-06T06:19:34;2.60;;;2.50;;
60847;SDS011;46681;47.696;9.140;2022-11-06T06:22:02;2.40;;;2.30;;
60847;SDS011;46681;47.696;9.140;2022-11-06T06:24:32;2.57;;;2.43;;
60847;SDS011;46681;47.696;9.140;2022-11-06T06:26:58;3.77;;;2.60;;
60847;SDS011;46681;47.696;9.140;2022-11-06T06:29:23;2.63;;;2.53;;
60847;SDS011;46681;47.696;9.140;2022-11-06T06:31:48;2.53;;;2.33;;
60847;SDS011;46681;47.696;9.140;2022-11-06T06:34:15;2.27;;;2.17;;
60847;SDS011;46681;47.696;9.140;2022-11-06T06:36:42;2.60;;;2.50;;
60847;SDS011;46681;47.696;9.140;2022-11-06T06:39:10;2.97;;;2.77;;
60847;SDS011;46681;47.696;9.140;2022-11-06T06:41:38;2.70;;;2.60;;
60847;SDS011;46681;47.696;9.140;2022-11-06T06:44:05;2.40;;;2.20;;
60847;SDS011;46681;47.696;9.140;2022-11-06T06:46:30;2.50;;;2.40;;
60847;SDS011;46681;47.696;9.140;2022-11-06T06:48:58;2.30;;;2.20;;
60847;SDS011;46681;47.696;9.140;2022-11-06T06:51:24;3.27;;;3.07;;
60847;SDS011;46681;47.696;9.140;2022-11-06T06:53:50;2.70;;;2.50;;
60847;SDS011;46681;47.696;9.140;2022-11-06T06:56:16;3.23;;;2.70;;
60847;SDS011;46681;47.696;9.140;2022-11-06T06:58:42;2.93;;;2.53;;
60847;SDS011;46681;47.696;9.140;2022-11-06T07:01:08;3.10;;;2.90;;
60847;SDS011;46681;47.696;9.140;2022-11-06T07:03:37;3.10;;;2.90;;
60847;SDS011;46681;47.696;9.140;2022-11-06T07:06:03;2.57;;;2.43;;
60847;SDS011;46681;47.696;9.140;2022-11-06T07:08:29;2.73;;;2.53;;
60847;SDS011;46681;47.696;9.140;2022-11-06T07:11:04;2.80;;;2.60;;
60847;SDS011;46681;47.696;9.140;2022-11-06T07:13:35;2.87;;;2.70;;
60847;SDS011;46681;47.696;9.140;2022-11-06T07:16:02;3.00;;;2.80;;
60847;SDS011;46681;47.696;9.140;2022-11-06T07:18:32;2.87;;;2.67;;
60847;SDS011;46681;47.696;9.140;2022-11-06T07:21:02;3.00;;;2.80;;
60847;SDS011;46681;47.696;9.140;2022-11-06T07:23:36;2.63;;;2.43;;
60847;SDS011;46681;47.696;9.140;2022-11-06T07:26:03;3.10;;;2.90;;
60847;SDS011;46681;47.696;9.140;2022-11-06T07:28:33;3.97;;;2.83;;
60847;SDS011;46681;47.696;9.140;2022-11-06T07:31:00;3.13;;;2.70;;
60847;SDS011;46681;47.696;9.140;2022-11-06T07:33:27;2.73;;;2.53;;
60847;SDS011;46681;47.696;9.140;2022-11-06T07:36:12;2.60;;;2.50;;
60847;SDS011;46681;47.696;9.140;2022-11-06T07:38:38;2.90;;;2.70;;
60847;SDS011;46681;47.696;9.140;2022-11-06T07:41:10;2.50;;;2.40;;
60847;SDS011;46681;47.696;9.140;2022-11-06T07:43:39;3.00;;;2.70;;
60847;SDS011;46681;47.696;9.140;2022-11-06T07:46:08;3.07;;;2.87;;
60847;SDS011;46681;47.696;9.140;2022-11-06T07:48:37;2.90;;;2.70;;
60847;SDS011;46681;47.696;9.140;2022-11-06T07:51:03;2.80;;;2.60;;
60847;SDS011;46681;47.696;9.140;2022-11-06T07:53:36;2.70;;;2.50;;
60847;SDS011;46681;47.696;9.140;2022-11-06T07:56:03;2.53;;;2.33;;
60847;SDS011;46681;47.696;9.140;2022-11-06T07:58:33;3.00;;;2.80;;
60847;SDS011;46681;47.696;9.140;2022-11-06T08:00:59;3.27;;;2.50;;
60847;SDS011;46681;47.696;9.140;2022-11-06T08:03:26;2.10;;;2.00;;
60847;SDS011;46681;47.696;9.140;2022-11-06T08:05:53;2.97;;;2.77;;
60847;SDS011;46681;47.696;9.140;2022-11-06T08:08:23;3.07;;;2.87;;
60847;SDS011;46681;47.696;9.140;2022-11-06T08:10:49;2.17;;;2.07;;
60847;SDS011;46681;47.696;9.140;2022-11-06T08:13:17;2.67;;;2.57;;
60847;SDS011;46681;47.696;9.140;2022-11-06T08:15:45;2.47;;;2.37;;
60847;SDS011;46681;47.696;9.140;2022-11-06T08:18:13;2.60;;;2.50;;
60847;SDS011;46681;47.696;9.140;2022-11-06T08:20:39;2.20;;;2.10;;
60847;SDS011;46681;47.696;9.140;2022-11-06T08:23:11;2.37;;;2.27;;
60847;SDS011;46681;47.696;9.140;2022-11-06T08:25:38;2.43;;;2.27;;
60847;SDS011;46681;47.696;9.140;2022-11-06T08:28:06;2.40;;;2.30;;
60847;SDS011;46681;47.696;9.140;2022-11-06T08:30:36;2.07;;;1.97;;
60847;SDS011;46681;47.696;9.140;2022-11-06T08:33:06;4.40;;;2.43;;
60847;SDS011;46681;47.696;9.140;2022-11-06T08:35:37;6.90;;;2.10;;
60847;SDS011;46681;47.696;9.140;2022-11-06T08:38:04;2.50;;;2.30;;
60847;SDS011;46681;47.696;9.140;2022-11-06T08:40:34;2.67;;;2.00;;
60847;SDS011;46681;47.696;9.140;2022-11-06T08:43:09;2.50;;;2.30;;
60847;SDS011;46681;47.696;9.140;2022-11-06T08:45:35;2.80;;;2.27;;
60847;SDS011;46681;47.696;9.140;2022-11-06T08:48:11;2.57;;;2.37;;
60847;SDS011;46681;47.696;9.140;2022-11-06T08:50:41;2.40;;;2.30;;
60847;SDS011;46681;47.696;9.140;2022-11-06T08:53:11;2.20;;;2.10;;
60847;SDS011;46681;47.696;9.140;2022-11-06T08:55:37;2.20;;;2.10;;
60847;SDS011;46681;47.696;9.140;2022-11-06T08:58:14;1.90;;;1.80;;
60847;SDS011;46681;47.696;9.140;2022-11-06T09:00:43;1.90;;;1.80;;
60847;SDS011;46681;47.696;9.140;2022-11-06T09:03:12;2.20;;;2.00;;
60847;SDS011;46681;47.696;9.140;2022-11-06T09:05:46;1.53;;;1.43;;
60847;SDS011;46681;47.696;9.140;2022-11-06T09:08:15;2.07;;;1.97;;
60847;SDS011;46681;47.696;9.140;2022-11-06T09:10:42;1.70;;;1.60;;
60847;SDS011;46681;47.696;9.140;2022-11-06T09:13:08;1.80;;;1.70;;
60847;SDS011;46681;47.696;9.140;2022-11-06T09:15:37;1.73;;;1.63;;
60847;SDS011;46681;47.696;9.140;2022-11-06T09:18:11;1.40;;;1.40;;
60847;SDS011;46681;47.696;9.140;2022-11-06T09:20:46;1.63;;;1.53;;
60847;SDS011;46681;47.696;9.140;2022-11-06T09:23:15;2.03;;;1.27;;
60847;SDS011;46681;47.696;9.140;2022-11-06T09:25:55;1.60;;;1.60;;
60847;SDS011;46681;47.696;9.140;2022-11-06T09:28:22;1.50;;;1.40;;
60847;SDS011;46681;47.696;9.140;2022-11-06T09:30:49;2.50;;;1.33;;
60847;SDS011;46681;47.696;9.140;2022-11-06T09:33:17;1.30;;;1.30;;
60847;SDS011;46681;47.696;9.140;2022-11-06T09:35:44;1.50;;;1.40;;
60847;SDS011;46681;47.696;9.140;2022-11-06T09:38:11;1.50;;;1.23;;
60847;SDS011;46681;47.696;9.140;2022-11-06T09:40:41;1.80;;;1.70;;
60847;SDS011;46681;47.696;9.140;2022-11-06T09:46:04;1.10;;;1.10;;
60847;SDS011;46681;47.696;9.140;2022-11-06T09:48:40;1.10;;;1.10;;
60847;SDS011;46681;47.696;9.140;2022-11-06T09:51:19;1.30;;;1.30;;
60847;SDS011;46681;47.696;9.140;2022-11-06T09:54:22;1.90;;;1.30;;
60847;SDS011;46681;47.696;9.140;2022-11-06T09:56:53;1.10;;;1.00;;
60847;SDS011;46681;47.696;9.140;2022-11-06T09:59:30;1.53;;;1.40;;
60847;SDS011;46681;47.696;9.140;2022-11-06T10:02:13;1.70;;;1.60;;
60847;SDS011;46681;47.696;9.140;2022-11-06T10:08:28;1.37;;;1.37;;
60847;SDS011;46681;47.696;9.140;2022-11-06T10:11:09;1.50;;;1.40;;
60847;SDS011;46681;47.696;9.140;2022-11-06T10:22:13;1.40;;;1.40;;
60847;SDS011;46681;47.696;9.140;2022-11-06T10:30:56;4.30;;;1.73;;
60847;SDS011;46681;47.696;9.140;2022-11-06T10:34:14;1.87;;;1.20;;
60847;SDS011;46681;47.696;9.140;2022-11-06T10:37:07;1.50;;;1.40;;
60847;SDS011;46681;47.696;9.140;2022-11-06T10:39:46;1.20;;;1.10;;
60847;SDS011;46681;47.696;9.140;2022-11-06T10:42:18;3.07;;;1.60;;
60847;SDS011;46681;47.696;9.140;2022-11-06T10:47:58;1.37;;;1.37;;
60847;SDS011;46681;47.696;9.140;2022-11-06T10:50:54;1.37;;;1.33;;
60847;SDS011;46681;47.696;9.140;2022-11-06T10:59:40;2.33;;;1.50;;
60847;SDS011;46681;47.696;9.140;2022-11-06T11:05:22;2.57;;;2.37;;
60847;SDS011;46681;47.696;9.140;2022-11-06T11:17:00;3.20;;;2.53;;
60847;SDS011;46681;47.696;9.140;2022-11-06T11:19:53;2.60;;;2.50;;
60847;SDS011;46681;47.696;9.140;2022-11-06T11:22:20;2.30;;;2.17;;
60847;SDS011;46681;47.696;9.140;2022-11-06T11:27:54;3.20;;;2.67;;
60847;SDS011;46681;47.696;9.140;2022-11-06T11:30:26;2.50;;;2.30;;
60847;SDS011;46681;47.696;9.140;2022-11-06T11:33:17;2.63;;;2.43;;
60847;SDS011;46681;47.696;9.140;2022-11-06T11:36:17;3.40;;;3.20;;
60847;SDS011;46681;47.696;9.140;2022-11-06T11:39:16;3.17;;;2.97;;
60847;SDS011;46681;47.696;9.140;2022-11-06T11:48:22;2.70;;;2.50;;
60847;SDS011;46681;47.696;9.140;2022-11-06T11:54:33;3.70;;;2.70;;
60847;SDS011;46681;47.696;9.140;2022-11-06T11:57:20;2.40;;;2.30;;
60847;SDS011;46681;47.696;9.140;2022-11-06T12:03:33;3.00;;;2.80;;
60847;SDS011;46681;47.696;9.140;2022-11-06T12:06:32;2.87;;;2.67;;
60847;SDS011;46681;47.696;9.140;2022-11-06T12:09:09;2.40;;;2.30;;
60847;SDS011;46681;47.696;9.140;2022-11-06T12:11:55;2.27;;;2.17;;
60847;SDS011;46681;47.696;9.140;2022-11-06T12:17:54;2.27;;;2.10;;
60847;SDS011;46681;47.696;9.140;2022-11-06T12:39:13;1.20;;;1.20;;
60847;SDS011;46681;47.696;9.140;2022-11-06T12:45:09;1.60;;;1.50;;
60847;SDS011;46681;47.696;9.140;2022-11-06T12:48:12;1.33;;;1.23;;
60847;SDS011;46681;47.696;9.140;2022-11-06T12:57:56;1.40;;;1.40;;
60847;SDS011;46681;47.696;9.140;2022-11-06T13:09:53;1.87;;;1.60;;
60847;SDS011;46681;47.696;9.140;2022-11-06T13:15:52;2.23;;;2.13;;
60847;SDS011;46681;47.696;9.140;2022-11-06T13:18:52;2.13;;;2.03;;
60847;SDS011;46681;47.696;9.140;2022-11-06T13:22:04;2.73;;;2.30;;
60847;SDS011;46681;47.696;9.140;2022-11-06T13:31:07;3.07;;;2.87;;
60847;SDS011;46681;47.696;9.140;2022-11-06T13:34:29;3.37;;;3.07;;
60847;SDS011;46681;47.696;9.140;2022-11-06T13:40:19;2.83;;;2.63;;
60847;SDS011;46681;47.696;9.140;2022-11-06T13:49:42;1.83;;;1.73;;
60847;SDS011;46681;47.696;9.140;2022-11-06T13:53:00;2.40;;;2.30;;
60847;SDS011;46681;47.696;9.140;2022-11-06T14:08:29;2.27;;;2.13;;
60847;SDS011;46681;47.696;9.140;2022-11-06T14:11:28;2.30;;;2.10;;
60847;SDS011;46681;47.696;9.140;2022-11-06T14:14:34;2.17;;;2.07;;
60847;SDS011;46681;47.696;9.140;2022-11-06T14:17:20;2.20;;;2.10;;
60847;SDS011;46681;47.696;9.140;2022-11-06T14:20:26;2.40;;;2.20;;
60847;SDS011;46681;47.696;9.140;2022-11-06T14:26:10;2.83;;;2.63;;
60847;SDS011;46681;47.696;9.140;2022-11-06T14:44:04;2.10;;;2.00;;
60847;SDS011;46681;47.696;9.140;2022-11-06T14:46:56;2.70;;;2.50;;
60847;SDS011;46681;47.696;9.140;2022-11-06T14:50:07;2.50;;;2.40;;
60847;SDS011;46681;47.696;9.140;2022-11-06T14:59:33;2.27;;;2.17;;
60847;SDS011;46681;47.696;9.140;2022-11-06T15:05:20;2.30;;;2.20;;
60847;SDS011;46681;47.696;9.140;2022-11-06T15:08:50;2.40;;;2.20;;
60847;SDS011;46681;47.696;9.140;2022-11-06T15:17:04;2.27;;;2.10;;
60847;SDS011;46681;47.696;9.140;2022-11-06T15:28:48;2.53;;;2.33;;
60847;SDS011;46681;47.696;9.140;2022-11-06T15:31:57;2.37;;;2.27;;
60847;SDS011;46681;47.696;9.140;2022-11-06T15:34:44;2.20;;;2.10;;
60847;SDS011;46681;47.696;9.140;2022-11-06T15:40:47;2.37;;;2.17;;
60847;SDS011;46681;47.696;9.140;2022-11-06T15:43:36;2.20;;;2.10;;
60847;SDS011;46681;47.696;9.140;2022-11-06T15:48:37;2.60;;;2.40;;
60847;SDS011;46681;47.696;9.140;2022-11-06T15:57:21;3.77;;;3.43;;
60847;SDS011;46681;47.696;9.140;2022-11-06T16:02:59;3.40;;;3.20;;
60847;SDS011;46681;47.696;9.140;2022-11-06T16:05:56;3.70;;;3.40;;
60847;SDS011;46681;47.696;9.140;2022-11-06T16:12:09;3.80;;;3.50;;
60847;SDS011;46681;47.696;9.140;2022-11-06T16:23:52;3.97;;;3.63;;
60847;SDS011;46681;47.696;9.140;2022-11-06T16:26:47;4.00;;;3.60;;
60847;SDS011;46681;47.696;9.140;2022-11-06T16:29:29;4.57;;;4.10;;
60847;SDS011;46681;47.696;9.140;2022-11-06T16:32:21;4.90;;;4.33;;
60847;SDS011;46681;47.696;9.140;2022-11-06T16:41:01;4.63;;;4.23;;
60847;SDS011;46681;47.696;9.140;2022-11-06T16:43:28;4.67;;;4.27;;
60847;SDS011;46681;47.696;9.140;2022-11-06T16:46:06;4.80;;;4.23;;
60847;SDS011;46681;47.696;9.140;2022-11-06T16:48:40;5.10;;;4.60;;
60847;SDS011;46681;47.696;9.140;2022-11-06T16:51:13;4.57;;;4.17;;
60847;SDS011;46681;47.696;9.140;2022-11-06T16:54:04;4.70;;;4.30;;
60847;SDS011;46681;47.696;9.140;2022-11-06T16:56:49;4.80;;;4.40;;
60847;SDS011;46681;47.696;9.140;2022-11-06T16:59:14;4.20;;;3.80;;
60847;SDS011;46681;47.696;9.140;2022-11-06T17:01:54;3.93;;;3.60;;
60847;SDS011;46681;47.696;9.140;2022-11-06T17:04:23;5.80;;;4.37;;
60847;SDS011;46681;47.696;9.140;2022-11-06T17:06:55;4.97;;;3.93;;
60847;SDS011;46681;47.696;9.140;2022-11-06T17:09:35;4.63;;;4.07;;
60847;SDS011;46681;47.696;9.140;2022-11-06T17:12:01;4.93;;;4.53;;
60847;SDS011;46681;47.696;9.140;2022-11-06T17:14:44;3.77;;;3.47;;
60847;SDS011;46681;47.696;9.140;2022-11-06T17:17:25;3.40;;;3.10;;
60847;SDS011;46681;47.696;9.140;2022-11-06T17:20:00;3.60;;;3.30;;
60847;SDS011;46681;47.696;9.140;2022-11-06T17:22:30;3.10;;;2.90;;
60847;SDS011;46681;47.696;9.140;2022-11-06T17:24:56;3.57;;;3.27;;
60847;SDS011;46681;47.696;9.140;2022-11-06T17:27:24;3.60;;;3.30;;
60847;SDS011;46681;47.696;9.140;2022-11-06T17:29:50;3.27;;;2.97;;
60847;SDS011;46681;47.696;9.140;2022-11-06T17:32:18;3.50;;;3.20;;
60847;SDS011;46681;47.696;9.140;2022-11-06T17:34:44;3.57;;;3.27;;
60847;SDS011;46681;47.696;9.140;2022-11-06T17:37:11;3.13;;;2.93;;
60847;SDS011;46681;47.696;9.140;2022-11-06T17:39:38;4.00;;;3.70;;
60847;SDS011;46681;47.696;9.140;2022-11-06T17:42:14;3.67;;;3.37;;
60847;SDS011;46681;47.696;9.140;2022-11-06T17:44:49;3.13;;;2.93;;
60847;SDS011;46681;47.696;9.140;2022-11-06T17:47:20;3.13;;;2.93;;
60847;SDS011;46681;47.696;9.140;2022-11-06T17:49:47;3.70;;;3.17;;
60847;SDS011;46681;47.696;9.140;2022-11-06T17:52:14;3.40;;;3.10;;
60847;SDS011;46681;47.696;9.140;2022-11-06T17:54:44;3.10;;;2.90;;
60847;SDS011;46681;47.696;9.140;2022-11-06T17:57:14;3.27;;;2.97;;
60847;SDS011;46681;47.696;9.140;2022-11-06T17:59:40;3.23;;;2.73;;
60847;SDS011;46681;47.696;9.140;2022-11-06T18:02:09;3.50;;;3.20;;
60847;SDS011;46681;47.696;9.140;2022-11-06T18:05:06;3.10;;;2.90;;
60847;SDS011;46681;47.696;9.140;2022-11-06T18:07:43;2.97;;;2.77;;
60847;SDS011;46681;47.696;9.140;2022-11-06T18:10:19;3.40;;;3.17;;
60847;SDS011;46681;47.696;9.140;2022-11-06T18:12:46;3.07;;;2.87;;
60847;SDS011;46681;47.696;9.140;2022-11-06T18:15:14;2.97;;;2.73;;
60847;SDS011;46681;47.696;9.140;2022-11-06T18:17:43;3.33;;;2.90;;
60847;SDS011;46681;47.696;9.140;2022-11-06T18:20:10;3.03;;;2.73;;
60847;SDS011;46681;47.696;9.140;2022-11-06T18:22:39;2.93;;;2.73;;
60847;SDS011;46681;47.696;9.140;2022-11-06T18:25:07;3.30;;;3.00;;
60847;SDS011;46681;47.696;9.140;2022-11-06T18:27:47;4.13;;;3.00;;
60847;SDS011;46681;47.696;9.140;2022-11-06T18:30:22;4.43;;;3.30;;
60847;SDS011;46681;47.696;9.140;2022-11-06T18:32:51;3.90;;;3.60;;
60847;SDS011;46681;47.696;9.140;2022-11-06T18:35:38;3.63;;;3.33;;
60847;SDS011;46681;47.696;9.140;2022-11-06T18:38:12;4.00;;;3.70;;
60847;SDS011;46681;47.696;9.140;2022-11-06T18:40:40;4.27;;;3.93;;
60847;SDS011;46681;47.696;9.140;2022-11-06T18:43:16;4.00;;;3.60;;
60847;SDS011;46681;47.696;9.140;2022-11-06T18:45:45;4.00;;;3.70;;
60847;SDS011;46681;47.696;9.140;2022-11-06T18:48:18;3.97;;;3.67;;
60847;SDS011;46681;47.696;9.140;2022-11-06T18:51:05;3.80;;;3.50;;
60847;SDS011;46681;47.696;9.140;2022-11-06T18:53:42;4.70;;;3.70;;
60847;SDS011;46681;47.696;9.140;2022-11-06T18:56:09;3.73;;;3.43;;
60847;SDS011;46681;47.696;9.140;2022-11-06T18:58:41;3.80;;;3.50;;
60847;SDS011;46681;47.696;9.140;2022-11-06T19:01:12;3.40;;;3.10;;
60847;SDS011;46681;47.696;9.140;2022-11-06T19:03:52;4.10;;;3.80;;
60847;SDS011;46681;47.696;9.140;2022-11-06T19:06:19;3.73;;;3.43;;
60847;SDS011;46681;47.696;9.140;2022-11-06T19:08:48;3.93;;;3.57;;
60847;SDS011;46681;47.696;9.140;2022-11-06T19:11:28;4.73;;;3.23;;
60847;SDS011;46681;47.696;9.140;2022-11-06T19:14:09;3.50;;;3.20;;
60847;SDS011;46681;47.696;9.140;2022-11-06T19:16:42;3.63;;;3.33;;
60847;SDS011;46681;47.696;9.140;2022-11-06T19:19:10;3.73;;;3.43;;
60847;SDS011;46681;47.696;9.140;2022-11-06T19:21:42;4.57;;;4.17;;
60847;SDS011;46681;47.696;9.140;2022-11-06T19:24:09;4.67;;;4.27;;
60847;SDS011;46681;47.696;9.140;2022-11-06T19:26:34;4.17;;;3.77;;
60847;SDS011;46681;47.696;9.140;2022-11-06T19:29:00;3.90;;;3.60;;
60847;SDS011;46681;47.696;9.140;2022-11-06T19:31:26;4.60;;;4.20;;
60847;SDS011;46681;47.696;9.140;2022-11-06T19:33:57;4.70;;;3.30;;
60847;SDS011;46681;47.696;9.140;2022-11-06T19:36:27;4.10;;;3.70;;
60847;SDS011;46681;47.696;9.140;2022-11-06T19:38:56;4.27;;;3.87;;